Time;durP1;ratioP1;P1;durP2;ratioP2;P2;SDS_P1;SDS_P2;PMS_P1;PMS_P2;Temp;Humidity;BMP_temperature;BMP_pressure;BME280_temperature;BME280_humidity;BME280_pressure;Samples;Min_cycle;Max_cycle;Signal;HPM_P1;HPM_P2
2022/04/26 03:37:57;;;;;;;8.48;6.10;;;;;;;10.24;100.00;150228.66;1688853;84;21569;-62
2022/04/26 03:40:24;;;;;;;11.05;7.25;;;;;;;10.34;100.00;150252.03;1689300;84;21506;-62
2022/04/26 03:42:52;;;;;;;12.73;6.53;;;;;;;10.43;100.00;150276.73;1689358;84;21953;-60
2022/04/26 03:45:20;;;;;;;11.73;6.58;;;;;;;10.55;100.00;150305.25;1689304;84;21060;-63
2022/04/26 03:47:49;;;;;;;11.63;6.33;;;;;;;10.65;100.00;150331.23;1689397;84;20985;-61
2022/04/26 03:50:18;;;;;;;11.43;6.28;;;;;;;10.76;100.00;150358.50;1688935;84;20987;-61
2022/04/26 03:52:45;;;;;;;10.43;5.78;;;;;;;10.87;100.00;150385.75;1689643;84;21000;-61
2022/04/26 03:55:13;;;;;;;12.95;6.50;;;;;;;10.99;100.00;150416.87;1688932;84;21245;-62
2022/04/26 03:57:42;;;;;;;8.30;5.87;;;;;;;11.10;100.00;150444.14;1689374;84;21028;-62
2022/04/26 04:00:12;;;;;;;10.95;5.55;;;;;;;11.21;100.00;150471.41;1688834;84;21048;-61
2022/04/26 04:02:40;;;;;;;8.63;5.28;;;;;;;11.33;100.00;150501.27;1689315;84;21442;-61
2022/04/26 04:05:10;;;;;;;9.38;5.37;;;;;;;11.46;100.00;150535.03;1688807;84;21497;-63
2022/04/26 04:07:38;;;;;;;7.33;4.97;;;;;;;11.58;100.00;150563.58;1689043;84;21838;-63
2022/04/26 04:10:07;;;;;;;9.55;5.47;;;;;;;11.69;100.00;150592.17;1689330;84;21043;-63
2022/04/26 04:12:36;;;;;;;11.30;4.92;;;;;;;11.83;100.00;150627.23;1689372;84;21411;-62
2022/04/26 04:15:07;;;;;;;8.25;5.22;;;;;;;11.96;100.00;150658.44;1688679;84;21141;-63
2022/04/26 04:17:35;;;;;;;7.05;4.33;;;;;;;12.09;100.00;150690.95;1689499;83;21024;-63
2022/04/26 04:20:06;;;;;;;6.58;4.37;;;;;;;12.21;100.00;150722.09;1688964;84;21059;-63
2022/04/26 04:22:35;;;;;;;8.50;4.17;;;;;;;12.36;100.00;150759.78;1689569;84;21406;-64
2022/04/26 04:25:03;;;;;;;6.80;4.30;;;;;;;12.52;100.00;150800.09;1688267;83;21064;-64
2022/04/26 04:27:31;;;;;;;7.42;4.25;;;;;;;12.66;100.00;150833.84;1688898;84;21072;-62
2022/04/26 04:30:02;;;;;;;8.80;4.42;;;;;;;12.81;100.00;150872.86;1688806;84;21040;-62
2022/04/26 04:32:31;;;;;;;5.47;3.30;;;;;;;12.97;100.00;150911.87;1689215;84;21212;-64
2022/04/26 04:34:57;;;;;;;6.58;4.35;;;;;;;13.15;100.00;150958.67;1688105;84;21119;-63
2022/04/26 04:37:26;;;;;;;8.63;3.92;;;;;;;13.32;100.00;151001.56;1688871;84;21123;-62
2022/04/26 04:39:53;;;;;;;8.78;4.25;;;;;;;13.53;100.00;151052.31;1688561;84;21096;-63
2022/04/26 04:42:21;;;;;;;8.43;3.90;;;;;;;13.71;100.00;151097.86;1688958;84;21054;-62
2022/04/26 04:44:49;;;;;;;8.13;3.83;;;;;;;13.91;100.00;151148.56;1689479;84;21358;-63
2022/04/26 04:47:16;;;;;;;8.28;4.20;;;;;;;14.11;100.00;151198.00;1688598;84;21048;-63
2022/04/26 04:49:44;;;;;;;5.60;3.35;;;;;;;14.31;99.24;151250.05;1688954;84;21075;-63
2022/04/26 04:52:11;;;;;;;9.25;4.40;;;;;;;14.51;98.10;151299.50;1688514;84;21394;-63
2022/04/26 04:54:38;;;;;;;7.35;3.85;;;;;;;14.70;96.89;151346.31;1689067;84;20929;-63
2022/04/26 04:57:06;;;;;;;10.38;4.15;;;;;;;14.92;95.86;151401.03;1687859;84;21292;-62
2022/04/26 04:59:33;;;;;;;8.75;3.90;;;;;;;15.13;94.30;151455.70;1688801;84;21076;-62
2022/04/26 05:02:00;;;;;;;5.95;3.98;;;;;;;15.33;92.63;151505.19;1688543;84;21048;-63
2022/04/26 05:04:29;;;;;;;8.03;4.22;;;;;;;15.53;91.33;151556.00;1689061;84;21040;-63
2022/04/26 05:06:57;;;;;;;8.03;4.08;;;;;;;15.73;89.89;151606.77;1688256;84;21160;-62
2022/04/26 05:09:24;;;;;;;9.93;3.95;;;;;;;15.92;88.17;151653.70;1688148;84;21330;-63
2022/04/26 05:11:55;;;;;;;10.15;4.62;;;;;;;16.10;86.79;151698.02;1687959;84;21624;-62
2022/04/26 05:14:23;;;;;;;10.45;4.12;;;;;;;16.27;85.41;151740.98;1688610;84;21161;-62
2022/04/26 05:16:50;;;;;;;7.33;3.75;;;;;;;16.44;84.20;151783.97;1688615;84;21648;-63
2022/04/26 05:19:18;;;;;;;7.15;3.45;;;;;;;16.60;83.16;151824.41;1688867;83;21080;-63
2022/04/26 05:21:45;;;;;;;7.28;3.35;;;;;;;16.80;82.15;151873.87;1689037;84;21229;-63
2022/04/26 05:26:59;;;;;;;11.15;3.58;;;;;;;17.20;79.61;151974.33;1688684;84;21037;-65
2022/04/26 05:29:26;;;;;;;8.55;3.55;;;;;;;17.41;77.59;152027.77;1689059;84;20960;-63
2022/04/26 05:31:53;;;;;;;7.25;3.33;;;;;;;17.56;76.37;152065.56;1688544;84;21096;-62
2022/04/26 05:34:20;;;;;;;9.50;3.95;;;;;;;17.71;75.40;152103.44;1688886;84;21279;-64
2022/04/26 05:36:48;;;;;;;7.22;3.27;;;;;;;17.85;74.29;152138.64;1688891;84;21037;-63
2022/04/26 05:39:15;;;;;;;5.58;3.10;;;;;;;18.01;73.21;152179.06;1688714;84;21095;-64
2022/04/26 05:41:43;;;;;;;8.35;3.27;;;;;;;18.21;72.11;152228.69;1689047;84;21022;-63
2022/04/26 05:44:10;;;;;;;5.70;3.22;;;;;;;18.39;70.70;152274.33;1688844;84;21091;-63
2022/04/26 05:46:37;;;;;;;6.42;2.62;;;;;;;18.54;69.17;152313.48;1689171;84;21266;-64
2022/04/26 05:49:06;;;;;;;8.45;2.92;;;;;;;18.66;67.98;152343.50;1689006;84;21028;-63
2022/04/26 05:51:33;;;;;;;11.00;2.98;;;;;;;18.75;67.20;152365.69;1689164;84;21519;-64
2022/04/26 05:54:01;;;;;;;7.40;3.08;;;;;;;18.85;67.11;152391.75;1688531;84;21107;-64
2022/04/26 05:56:30;;;;;;;4.15;2.35;;;;;;;19.01;66.80;152430.98;1689111;84;21076;-64
2022/04/26 05:58:57;;;;;;;6.00;2.50;;;;;;;19.10;64.36;152454.45;1688841;84;21261;-63
2022/04/26 06:01:24;;;;;;;8.48;2.55;;;;;;;19.16;63.59;152470.16;1689367;84;21142;-63
2022/04/26 06:03:51;;;;;;;6.72;2.52;;;;;;;19.24;62.87;152488.41;1689045;84;21031;-63
2022/04/26 06:06:20;;;;;;;5.22;2.22;;;;;;;19.34;62.74;152514.50;1688844;84;20992;-63
2022/04/26 06:08:47;;;;;;;4.95;2.00;;;;;;;19.42;61.99;152534.09;1688967;84;21004;-64
2022/04/26 06:11:15;;;;;;;5.33;2.17;;;;;;;19.51;61.36;152557.62;1688740;84;21277;-62
2022/04/26 06:13:44;;;;;;;4.80;1.80;;;;;;;19.61;60.93;152582.42;1689076;84;21413;-64
2022/04/26 06:16:11;;;;;;;6.80;1.75;;;;;;;19.74;59.99;152615.06;1688578;84;21739;-63
2022/04/26 06:18:38;;;;;;;3.37;1.52;;;;;;;19.85;58.69;152643.77;1686456;82;21081;-64
2022/04/26 06:21:07;;;;;;;3.70;1.40;;;;;;;19.92;56.69;152660.81;1681474;84;21045;-64
2022/04/26 06:23:36;;;;;;;4.30;1.70;;;;;;;19.85;56.95;152643.77;1681397;84;21030;-65
2022/04/26 06:26:04;;;;;;;4.95;1.80;;;;;;;19.88;57.04;152651.59;1679784;84;21060;-63
2022/04/26 06:28:31;;;;;;;4.67;1.62;;;;;;;19.94;56.18;152666.03;1677995;85;21513;-64
2022/04/26 06:31:00;;;;;;;5.58;1.75;;;;;;;19.88;56.63;152650.31;1677489;84;20993;-62
2022/04/26 06:33:29;;;;;;;3.00;1.80;;;;;;;19.94;56.69;152666.03;1677911;84;20965;-62
2022/04/26 06:35:56;;;;;;;3.95;1.80;;;;;;;20.08;57.04;152700.00;1679207;84;21140;-62
2022/04/26 06:38:25;;;;;;;5.85;2.00;;;;;;;20.20;55.76;152731.31;1681590;84;21004;-64
2022/04/26 06:40:53;;;;;;;4.37;1.60;;;;;;;20.23;55.70;152737.88;1681402;84;21119;-63
2022/04/26 06:43:21;;;;;;;6.42;1.37;;;;;;;20.23;55.99;152739.20;1681167;85;21558;-64
2022/04/26 06:45:51;;;;;;;6.40;1.80;;;;;;;20.38;55.47;152775.75;1680218;85;21087;-64
2022/04/26 06:48:19;;;;;;;4.35;1.50;;;;;;;20.50;53.71;152807.13;1677626;84;21197;-62
2022/04/26 06:50:46;;;;;;;3.02;1.60;;;;;;;20.56;53.36;152822.78;1677807;85;21001;-63
2022/04/26 06:53:13;;;;;;;2.80;1.25;;;;;;;20.65;52.75;152843.67;1677513;85;21073;-63
2022/04/26 06:55:40;;;;;;;4.50;1.40;;;;;;;20.71;51.40;152859.38;1677917;85;21388;-63
2022/04/26 06:58:09;;;;;;;2.33;1.22;;;;;;;20.72;51.03;152862.00;1700558;83;21301;-62
2022/04/26 07:00:37;;;;;;;4.80;1.70;;;;;;;20.76;50.23;152872.44;1719480;82;20925;-62
2022/04/26 07:03:05;;;;;;;3.95;1.52;;;;;;;20.84;50.55;152893.38;1718859;83;21107;-63
2022/04/26 07:05:32;;;;;;;2.70;1.20;;;;;;;20.88;49.87;152903.81;1719377;83;21032;-63
2022/04/26 07:08:04;;;;;;;6.35;1.65;;;;;;;20.94;50.00;152916.92;1709350;83;21147;-63
2022/04/26 07:10:32;;;;;;;2.90;1.20;;;;;;;21.01;49.72;152936.53;1677591;84;21057;-63
2022/04/26 07:13:00;;;;;;;2.20;1.17;;;;;;;21.02;49.11;152937.81;1677797;85;21013;-64
2022/04/26 07:15:31;;;;;;;4.75;1.40;;;;;;;21.10;49.40;152958.70;1677565;84;21036;-64
2022/04/26 07:18:00;;;;;;;4.58;1.25;;;;;;;21.26;48.92;152999.27;1677106;84;21068;-62
2022/04/26 07:20:30;;;;;;;3.98;1.52;;;;;;;21.35;48.96;153021.50;1677620;85;21462;-63
2022/04/26 07:22:57;;;;;;;2.37;1.32;;;;;;;21.54;48.45;153068.50;1677611;85;21012;-63
2022/04/26 07:25:25;;;;;;;5.62;1.70;;;;;;;21.67;47.09;153102.56;1677300;84;21277;-63
2022/04/26 07:27:52;;;;;;;4.53;1.57;;;;;;;21.58;47.44;153079.00;1677197;84;21032;-63
2022/04/26 07:30:21;;;;;;;4.72;1.32;;;;;;;21.59;47.55;153082.91;1677147;84;21535;-65
2022/04/26 07:35:33;;;;;;;2.30;1.10;;;;;;;21.70;46.98;153109.13;1677639;84;21073;-64
2022/04/26 07:38:07;;;;;;;5.85;1.60;;;;;;;21.68;46.88;153105.19;1677460;85;21221;-63
2022/04/26 07:40:34;;;;;;;3.80;1.42;;;;;;;21.75;47.27;153122.19;1679753;84;21487;-62
2022/04/26 07:43:01;;;;;;;4.87;1.30;;;;;;;21.89;46.78;153157.48;1681233;85;21518;-64
2022/04/26 07:45:30;;;;;;;6.47;1.77;;;;;;;21.92;45.87;153164.03;1681151;84;21024;-63
2022/04/26 07:47:59;;;;;;;3.77;1.42;;;;;;;21.83;45.83;153143.09;1681146;85;21116;-63
2022/04/26 07:50:26;;;;;;;2.58;1.30;;;;;;;21.73;45.75;153118.25;1681116;85;21204;-64
2022/04/26 07:52:54;;;;;;;4.08;1.50;;;;;;;21.61;45.24;153086.84;1680594;84;21590;-64
2022/04/26 07:55:21;;;;;;;2.67;1.37;;;;;;;21.39;45.48;153031.94;1680913;84;21162;-64
2022/04/26 07:57:50;;;;;;;2.35;1.22;;;;;;;21.32;46.66;153014.94;1680773;85;20958;-65
2022/04/26 08:00:17;;;;;;;5.67;1.60;;;;;;;21.46;47.00;153048.94;1690366;83;21115;-66
2022/04/26 08:02:46;;;;;;;3.47;1.80;;;;;;;21.66;46.60;153098.63;1679033;84;21123;-64
2022/04/26 08:05:14;;;;;;;4.87;1.72;;;;;;;21.88;46.39;153154.88;1678620;85;21133;-62
2022/04/26 08:07:42;;;;;;;4.00;1.40;;;;;;;22.10;45.48;153209.80;1681317;85;21104;-63
2022/04/26 08:10:11;;;;;;;4.17;1.50;;;;;;;22.19;44.55;153233.31;1678410;85;20996;-62
2022/04/26 08:12:40;;;;;;;4.97;1.52;;;;;;;22.00;44.97;153186.28;1677708;84;20966;-64
2022/04/26 08:15:10;;;;;;;3.37;1.40;;;;;;;21.95;45.43;153173.16;1684238;83;21092;-64
2022/04/26 08:17:37;;;;;;;4.17;1.50;;;;;;;22.04;45.28;153196.72;1682745;83;21367;-64
2022/04/26 08:20:10;;;;;;;4.08;1.75;;;;;;;22.23;45.07;153243.81;1685964;83;21059;-63
2022/04/26 08:22:38;;;;;;;3.60;1.70;;;;;;;22.31;45.11;153263.39;1689746;83;21367;-64
2022/04/26 08:27:55;;;;;;;6.78;1.55;;;;;;;22.26;45.55;153251.66;1643829;87;21111;-63
2022/04/26 08:30:24;;;;;;;2.33;1.37;;;;;;;22.38;45.12;153280.41;1645267;86;21099;-63
2022/04/26 08:32:53;;;;;;;3.87;1.90;;;;;;;22.54;44.69;153322.31;1652765;86;21040;-63
2022/04/26 08:35:24;;;;;;;6.25;1.87;;;;;;;22.66;44.49;153351.08;1666301;84;21027;-62
2022/04/26 08:37:51;;;;;;;5.33;1.30;;;;;;;22.70;44.52;153362.86;1689584;84;20909;-61
2022/04/26 08:40:19;;;;;;;3.15;1.20;;;;;;;22.79;44.51;153385.11;1689054;84;21063;-64
2022/04/26 08:42:49;;;;;;;5.00;1.25;;;;;;;22.95;43.95;153425.66;1679677;84;20982;-64
2022/04/26 08:45:19;;;;;;;3.27;1.35;;;;;;;23.07;43.58;153455.75;1676520;83;21076;-64
2022/04/26 08:53:22;;;;;;;9.15;1.82;;;;;;;23.30;42.44;153514.72;1666070;84;21010;-66
2022/04/26 08:55:55;;;;;;;8.78;1.90;;;;;;;23.39;42.29;153536.97;1661949;84;21013;-64
2022/04/26 08:58:25;;;;;;;5.22;1.30;;;;;;;23.44;42.20;153550.03;1659059;85;21028;-63
2022/04/26 09:01:16;;;;;;;23.83;4.37;;;;;;;23.49;41.48;153560.50;1659102;86;21000;-63
2022/04/26 09:03:58;;;;;;;3.40;1.37;;;;;;;23.46;41.63;153553.98;1659690;85;21395;-63
2022/04/26 09:06:45;;;;;;;8.43;1.30;;;;;;;23.55;41.28;153576.23;1689842;84;21319;-65
2022/04/26 09:09:17;;;;;;;2.90;1.15;;;;;;;23.58;41.12;153584.09;1665337;84;21059;-64
2022/04/26 09:11:46;;;;;;;7.30;1.30;;;;;;;23.64;41.18;153599.78;1674611;84;21080;-63
2022/04/26 09:14:35;;;;;;;6.30;1.20;;;;;;;23.69;41.17;153612.86;1697474;83;21130;-64
2022/04/26 09:17:10;;;;;;;3.77;1.40;;;;;;;23.71;40.76;153618.09;1697189;83;21091;-64
2022/04/26 09:19:50;;;;;;;3.25;1.52;;;;;;;23.51;40.23;153567.06;1688705;84;21153;-65
2022/04/26 09:22:27;;;;;;;6.12;1.82;;;;;;;23.22;42.04;153492.41;1692206;84;21111;-65
2022/04/26 09:25:06;;;;;;;4.03;2.35;;;;;;;22.86;43.56;153403.41;1711024;83;21608;-63
2022/04/26 09:27:41;;;;;;;7.17;2.27;;;;;;;22.58;45.75;153332.78;1692369;83;21111;-66
2022/04/26 09:30:12;;;;;;;5.25;2.30;;;;;;;22.27;46.64;153254.27;1692655;84;21107;-65
2022/04/26 09:32:48;;;;;;;5.00;2.15;;;;;;;21.99;47.69;153183.61;1692940;83;21233;-65
2022/04/26 09:35:22;;;;;;;8.63;2.92;;;;;;;21.77;48.12;153126.08;1692501;83;20996;-64
2022/04/26 09:37:51;;;;;;;4.75;2.40;;;;;;;21.53;49.34;153067.22;1692574;83;20968;-64
2022/04/26 09:40:21;;;;;;;6.20;2.72;;;;;;;21.30;50.46;153009.72;1692353;84;21127;-63
2022/04/26 09:42:51;;;;;;;4.20;2.70;;;;;;;21.16;51.68;152974.42;1692765;83;20877;-63
2022/04/26 09:45:18;;;;;;;9.73;2.80;;;;;;;20.94;52.30;152918.20;1692695;84;21122;-65
2022/04/26 09:47:46;;;;;;;5.67;2.83;;;;;;;20.77;53.15;152875.05;1692867;83;20949;-64
2022/04/26 09:50:15;;;;;;;5.40;2.87;;;;;;;20.65;53.75;152843.67;1692011;83;21147;-64
2022/04/26 09:52:42;;;;;;;4.62;2.55;;;;;;;20.52;54.02;152812.34;1693036;83;21123;-64
2022/04/26 09:55:11;;;;;;;5.80;2.75;;;;;;;20.39;54.21;152778.36;1692530;83;20995;-64
2022/04/26 09:57:39;;;;;;;5.37;2.60;;;;;;;20.26;54.77;152747.03;1692844;83;21905;-63
2022/04/26 10:00:11;;;;;;;5.10;2.80;;;;;;;20.21;55.04;152732.66;1692002;83;21206;-64
2022/04/26 10:02:46;;;;;;;4.50;2.70;;;;;;;20.12;55.74;152710.44;1689847;84;21040;-65
2022/04/26 10:05:15;;;;;;;4.58;2.40;;;;;;;20.00;56.26;152681.69;1689272;84;21111;-63
2022/04/26 10:07:44;;;;;;;5.70;2.40;;;;;;;19.92;56.72;152660.81;1692771;83;21095;-63
2022/04/26 10:10:14;;;;;;;5.75;2.80;;;;;;;19.88;57.12;152651.59;1724947;83;21019;-64
2022/04/26 10:12:42;;;;;;;9.15;2.87;;;;;;;19.90;57.18;152655.53;1725145;81;21398;-63
2022/04/26 10:15:11;;;;;;;4.05;2.33;;;;;;;19.93;57.08;152662.12;1690727;83;21007;-63
2022/04/26 10:17:46;;;;;;;3.90;2.17;;;;;;;19.94;56.88;152664.75;1689874;84;21044;-64
2022/04/26 10:20:39;;;;;;;4.92;2.35;;;;;;;19.93;57.16;152662.12;1680080;84;21639;-63
2022/04/26 10:23:07;;;;;;;4.60;2.30;;;;;;;19.96;57.35;152671.25;1674004;85;21902;-63
2022/04/26 10:25:35;;;;;;;5.30;2.33;;;;;;;19.95;57.55;152668.62;1681466;85;21115;-63
2022/04/26 10:28:26;;;;;;;4.85;2.08;;;;;;;19.92;57.67;152660.81;1680922;84;21489;-65
2022/04/26 10:30:57;;;;;;;4.45;2.25;;;;;;;19.89;57.34;152652.92;1681689;84;20938;-64
2022/04/26 10:33:42;;;;;;;2.77;2.15;;;;;;;19.85;57.87;152642.48;1681284;84;21080;-62
2022/04/26 10:36:34;;;;;;;5.07;2.53;;;;;;;19.69;58.17;152603.30;1681553;84;22180;-65
2022/04/26 10:39:14;;;;;;;4.37;2.15;;;;;;;19.55;58.87;152568.05;1681083;85;21324;-62
2022/04/26 10:41:44;;;;;;;4.30;2.17;;;;;;;19.35;59.82;152517.16;1680792;85;21092;-62
2022/04/26 10:44:23;;;;;;;3.12;1.95;;;;;;;19.22;60.55;152483.19;1677487;85;21135;-62
2022/04/26 10:47:04;;;;;;;3.15;2.12;;;;;;;19.05;61.10;152441.41;1675745;84;20977;-61
2022/04/26 10:49:42;;;;;;;3.55;2.30;;;;;;;18.86;61.70;152393.09;1676651;84;21217;-63
2022/04/26 10:55:01;;;;;;;4.10;2.00;;;;;;;18.42;63.29;152282.16;1677025;84;20973;-62
2022/04/26 10:57:31;;;;;;;3.15;2.12;;;;;;;18.26;63.80;152241.72;1676638;84;21545;-64
2022/04/26 11:00:08;;;;;;;3.17;1.82;;;;;;;18.18;64.53;152223.47;1677297;84;21056;-64
2022/04/26 11:02:40;;;;;;;4.20;1.90;;;;;;;18.21;64.99;152229.97;1677250;84;21017;-64
2022/04/26 11:05:16;;;;;;;3.22;2.02;;;;;;;18.27;65.07;152244.33;1676654;85;21135;-64
2022/04/26 11:07:48;;;;;;;4.17;2.60;;;;;;;18.32;65.55;152258.69;1659733;85;21083;-64
2022/04/26 11:10:19;;;;;;;5.30;2.17;;;;;;;18.42;65.86;152282.16;1680739;83;21139;-65
2022/04/26 11:12:47;;;;;;;3.87;2.20;;;;;;;18.44;66.29;152287.36;1656225;85;21021;-63
2022/04/26 11:15:19;;;;;;;3.22;2.33;;;;;;;18.45;66.66;152289.97;1676704;84;21637;-63
2022/04/26 11:17:47;;;;;;;6.28;2.27;;;;;;;18.41;66.99;152280.87;1677423;84;21025;-62
2022/04/26 11:20:18;;;;;;;6.75;2.50;;;;;;;18.35;67.15;152263.91;1677100;83;21127;-65
2022/04/26 11:22:53;;;;;;;6.50;2.30;;;;;;;18.29;67.63;152250.86;1677174;84;20957;-64
2022/04/26 11:28:11;;;;;;;4.37;1.60;;;;;;;18.41;67.69;152279.53;1636816;85;21056;-63
2022/04/26 11:30:44;;;;;;;3.20;1.57;;;;;;;18.57;64.67;152320.03;1677671;84;21037;-62
2022/04/26 11:33:24;;;;;;;6.85;1.82;;;;;;;18.79;63.46;152376.11;1680910;83;21071;-65
2022/04/26 11:35:56;;;;;;;4.60;2.72;;;;;;;19.02;64.70;152434.92;1676565;84;21060;-64
2022/04/26 11:38:25;;;;;;;6.33;2.10;;;;;;;19.16;64.57;152470.16;1670448;85;21060;-63
2022/04/26 11:41:00;;;;;;;4.47;2.17;;;;;;;19.33;63.62;152511.89;1677456;84;21600;-62
2022/04/26 11:43:37;;;;;;;3.77;2.10;;;;;;;19.45;63.09;152543.25;1677475;84;21060;-62
2022/04/26 11:46:04;;;;;;;2.67;1.70;;;;;;;19.54;63.17;152565.44;1678074;85;21084;-62
2022/04/26 11:48:34;;;;;;;9.10;2.20;;;;;;;19.58;61.59;152574.59;1677575;85;21056;-63
2022/04/26 11:51:02;;;;;;;8.35;2.55;;;;;;;19.66;61.76;152594.14;1677745;84;21072;-61
2022/04/26 11:53:31;;;;;;;9.35;2.40;;;;;;;19.59;62.43;152577.20;1679719;84;21119;-62
2022/04/26 11:56:02;;;;;;;6.12;1.90;;;;;;;19.40;63.21;152530.20;1680591;84;21585;-63
2022/04/26 11:58:34;;;;;;;5.67;1.92;;;;;;;19.27;62.19;152496.23;1677343;84;21139;-64
2022/04/26 12:01:15;;;;;;;6.08;1.87;;;;;;;19.21;61.81;152481.86;1677604;85;21136;-61
2022/04/26 12:03:52;;;;;;;8.28;2.17;;;;;;;19.27;61.17;152496.23;1677735;85;21032;-63
2022/04/26 12:06:20;;;;;;;;;;;;;;;19.32;60.93;152509.28;1679105;84;21525;-63
2022/04/26 12:08:53;;;;;;;4.45;2.20;;;;;;;19.41;60.16;152532.81;1677325;84;20432;-63
2022/04/26 12:11:29;;;;;;;7.03;2.27;;;;;;;19.39;61.41;152527.59;1677074;85;21593;-63
2022/04/26 12:14:17;;;;;;;5.08;1.90;;;;;;;19.27;61.98;152496.23;1676317;85;21282;-63
2022/04/26 12:16:48;;;;;;;3.60;1.87;;;;;;;19.27;62.44;152496.23;1677718;84;21065;-64
2022/04/26 12:19:15;;;;;;;6.62;1.65;;;;;;;19.23;62.18;152487.13;1677427;84;21358;-62
2022/04/26 12:21:59;;;;;;;8.55;2.02;;;;;;;19.22;62.13;152483.19;1672971;84;21124;-63
2022/04/26 12:24:40;;;;;;;7.65;1.72;;;;;;;19.23;62.46;152485.80;1664985;85;22239;-63
2022/04/26 12:27:16;;;;;;;6.80;1.52;;;;;;;19.31;61.60;152506.67;1669809;85;21797;-63
2022/04/26 12:29:49;;;;;;;4.17;1.40;;;;;;;19.39;60.15;152527.59;1670629;84;20993;-62
2022/04/26 12:32:19;;;;;;;3.95;1.40;;;;;;;19.53;57.96;152561.50;1670144;84;21071;-63
2022/04/26 12:34:55;;;;;;;7.97;1.80;;;;;;;19.81;56.43;152632.06;1670743;84;21431;-63
2022/04/26 12:37:31;;;;;;;4.60;1.17;;;;;;;20.09;55.05;152702.61;1670186;84;22198;-63
2022/04/26 12:40:08;;;;;;;3.98;1.35;;;;;;;20.35;53.31;152769.25;1670733;85;21557;-64
2022/04/26 12:42:39;;;;;;;4.30;1.30;;;;;;;20.66;52.81;152847.61;1643084;86;21048;-64
2022/04/26 12:45:26;;;;;;;4.78;1.25;;;;;;;20.92;51.99;152911.70;1678006;85;22655;-63
2022/04/26 12:50:56;;;;;;;2.98;1.10;;;;;;;21.29;47.50;153005.78;1645564;87;21076;-62
2022/04/26 12:53:32;;;;;;;4.55;0.75;;;;;;;21.52;44.80;153064.63;1646276;86;21064;-63
2022/04/26 12:56:08;;;;;;;2.12;0.90;;;;;;;21.64;43.60;153094.69;1648001;85;21072;-63
2022/04/26 12:58:37;;;;;;;3.60;0.80;;;;;;;21.77;42.18;153126.08;1648627;86;21149;-63
2022/04/26 13:01:06;;;;;;;1.75;0.90;;;;;;;21.85;41.42;153147.03;1642503;86;21107;-63
2022/04/26 13:03:34;;;;;;;2.67;0.93;;;;;;;21.95;41.19;153173.16;1625288;88;21131;-63
2022/04/26 13:06:17;;;;;;;1.82;0.85;;;;;;;22.08;40.69;153204.56;1660234;86;20957;-63
2022/04/26 13:08:52;;;;;;;2.10;0.98;;;;;;;22.17;39.43;153228.09;1668304;85;21040;-63
2022/04/26 13:11:39;;;;;;;1.40;0.70;;;;;;;22.22;38.58;153241.20;1648117;86;21970;-63
2022/04/26 13:14:07;;;;;;;4.95;0.85;;;;;;;22.23;38.71;153243.81;1676737;85;21052;-62
2022/04/26 13:16:34;;;;;;;3.65;1.05;;;;;;;22.30;38.89;153262.11;1651404;85;21054;-63
2022/04/26 13:19:02;;;;;;;3.35;0.85;;;;;;;22.38;38.85;153281.73;1676347;84;21066;-63
2022/04/26 13:21:30;;;;;;;1.82;0.80;;;;;;;22.48;38.48;153306.64;1676917;84;21132;-63
2022/04/26 13:23:59;;;;;;;1.37;0.90;;;;;;;22.55;38.42;153324.94;1676582;84;21079;-62
2022/04/26 13:26:30;;;;;;;1.90;0.88;;;;;;;22.60;37.68;153336.72;1641926;85;21019;-63
2022/04/26 13:28:57;;;;;;;4.05;0.88;;;;;;;22.66;38.25;153351.08;1685719;84;21078;-63
2022/04/26 13:31:25;;;;;;;2.72;0.82;;;;;;;22.80;38.28;153387.72;1703198;82;21007;-64
2022/04/26 13:33:56;;;;;;;4.78;0.70;;;;;;;23.01;38.11;153440.06;1706150;83;20944;-64
2022/04/26 13:36:27;;;;;;;4.30;0.80;;;;;;;23.17;37.79;153481.94;1705947;83;20999;-64
2022/04/26 13:38:57;;;;;;;1.67;0.75;;;;;;;23.34;37.49;153522.55;1705935;82;20964;-64
2022/04/26 13:41:23;;;;;;;2.42;0.70;;;;;;;23.43;37.22;153547.42;1692855;84;21440;-63
2022/04/26 13:43:52;;;;;;;3.58;0.80;;;;;;;23.48;36.87;153559.22;1676854;84;21015;-64
2022/04/26 13:46:21;;;;;;;1.87;0.90;;;;;;;23.51;36.78;153565.72;1676230;84;21125;-63
2022/04/26 13:48:49;;;;;;;3.33;0.98;;;;;;;23.52;36.61;153568.34;1676782;84;21220;-62
2022/04/26 13:51:17;;;;;;;2.37;1.10;;;;;;;23.53;36.44;153572.28;1676391;84;21083;-63
2022/04/26 13:53:45;;;;;;;5.87;1.50;;;;;;;23.53;36.33;153570.95;1676890;84;20976;-63
2022/04/26 13:56:12;;;;;;;1.65;1.10;;;;;;;23.51;36.54;153567.06;1676699;84;21043;-64
2022/04/26 13:58:41;;;;;;;3.75;1.30;;;;;;;23.46;37.00;153553.98;1620139;87;21113;-64
2022/04/26 14:01:09;;;;;;;2.22;1.10;;;;;;;23.41;38.47;153542.19;1642646;87;21224;-63
2022/04/26 14:03:36;;;;;;;2.12;1.10;;;;;;;23.30;39.73;153513.38;1644800;85;21064;-63
2022/04/26 14:06:06;;;;;;;5.05;1.27;;;;;;;23.17;40.72;153481.94;1644486;87;21015;-64
2022/04/26 14:08:36;;;;;;;1.75;0.93;;;;;;;23.02;41.19;153444.00;1612146;87;21172;-63
2022/04/26 14:11:02;;;;;;;4.95;1.20;;;;;;;22.84;41.82;153398.19;1676727;84;21130;-64
2022/04/26 14:21:47;;;;;;;3.62;1.20;;;;;;;22.73;42.30;153369.42;1681787;84;21077;-64
2022/04/26 14:24:15;;;;;;;4.75;1.30;;;;;;;22.35;43.13;153272.56;1842514;76;22683;-65
2022/04/26 14:26:43;;;;;;;4.45;1.10;;;;;;;22.24;43.34;153246.44;1786120;79;20889;-63
2022/04/26 14:29:10;;;;;;;5.42;1.35;;;;;;;22.18;43.60;153230.69;1782434;79;21344;-65
2022/04/26 14:31:39;;;;;;;1.75;1.27;;;;;;;22.12;43.94;153215.02;1783015;79;20977;-64
2022/04/26 14:34:07;;;;;;;2.17;1.27;;;;;;;22.09;44.24;153207.19;1801065;79;21027;-62
2022/04/26 14:36:34;;;;;;;2.80;1.12;;;;;;;22.10;44.17;153211.08;1782751;79;20956;-62
2022/04/26 14:39:02;;;;;;;3.05;1.20;;;;;;;22.10;44.07;153209.80;1791984;79;22136;-62
2022/04/26 14:41:30;;;;;;;5.17;1.80;;;;;;;22.15;44.05;153224.19;1809957;79;21229;-62
2022/04/26 14:43:58;;;;;;;4.10;1.20;;;;;;;22.22;43.95;153241.20;1798626;79;20964;-62
2022/04/26 14:46:25;;;;;;;2.37;1.10;;;;;;;22.32;43.78;153266.00;1782721;79;21031;-62
2022/04/26 14:48:54;;;;;;;6.22;1.42;;;;;;;22.41;43.61;153289.58;1794915;79;21013;-63
2022/04/26 14:51:23;;;;;;;5.97;1.00;;;;;;;22.46;43.16;153301.36;1782780;79;20944;-63
2022/04/26 14:53:51;;;;;;;2.17;0.93;;;;;;;22.49;42.58;153309.25;1782790;79;21289;-62
2022/04/26 14:56:19;;;;;;;2.55;1.20;;;;;;;22.45;42.58;153298.75;1782644;80;21009;-64
2022/04/26 14:58:49;;;;;;;1.82;1.10;;;;;;;22.43;42.47;153293.47;1783270;79;21376;-65
2022/04/26 15:01:17;;;;;;;2.40;1.00;;;;;;;22.41;42.63;153288.25;1795604;79;20995;-63
2022/04/26 15:03:46;;;;;;;1.82;1.10;;;;;;;22.38;43.18;153281.73;1812779;79;20892;-61
2022/04/26 15:06:13;;;;;;;1.50;1.00;;;;;;;22.35;43.54;153272.56;1804108;79;21248;-62
2022/04/26 15:11:27;;;;;;;2.92;1.10;;;;;;;22.23;43.56;153243.81;1768357;79;21597;-64
2022/04/26 15:16:46;;;;;;;3.00;1.27;;;;;;;22.01;43.95;153188.89;1785236;79;21402;-63
2022/04/26 15:19:12;;;;;;;6.67;1.35;;;;;;;21.86;44.26;153149.66;1799919;79;21587;-63
2022/04/26 15:21:42;;;;;;;5.00;1.27;;;;;;;21.78;44.21;153128.75;1810361;79;20991;-62
2022/04/26 15:24:11;;;;;;;3.90;1.00;;;;;;;21.67;44.23;153102.56;1815708;77;21463;-62
2022/04/26 15:26:40;;;;;;;6.40;1.00;;;;;;;21.59;44.29;153082.91;1774389;78;21001;-65
2022/04/26 15:29:07;;;;;;;3.22;1.40;;;;;;;21.52;44.43;153064.63;1790421;80;21484;-63
2022/04/26 15:31:35;;;;;;;1.87;1.10;;;;;;;21.42;44.98;153039.78;1789637;80;21038;-64
2022/04/26 15:34:04;;;;;;;2.40;1.20;;;;;;;21.34;45.38;153018.88;1789023;80;20960;-63
2022/04/26 15:36:33;;;;;;;2.40;1.12;;;;;;;21.26;45.57;152999.27;1788836;80;20980;-63
2022/04/26 15:39:00;;;;;;;4.75;1.10;;;;;;;21.17;45.60;152977.05;1788817;80;21485;-64
2022/04/26 15:41:28;;;;;;;3.35;1.27;;;;;;;21.09;45.76;152954.81;1758487;80;21087;-63
2022/04/26 15:43:56;;;;;;;3.08;1.15;;;;;;;20.99;45.94;152931.27;1789553;80;21908;-64
2022/04/26 15:46:24;;;;;;;4.95;1.15;;;;;;;20.92;46.17;152911.70;1790277;79;21055;-64
2022/04/26 15:48:53;;;;;;;2.12;1.30;;;;;;;20.83;46.40;152890.77;1790653;80;21304;-62
2022/04/26 15:51:22;;;;;;;5.90;2.10;;;;;;;20.76;46.58;152872.44;1790235;80;20905;-64